sensor_id;sensor_type;location;lat;lon;timestamp;P1;durP1;ratioP1;P2;durP2;ratioP2
70078;SDS011;57451;52.496;13.456;2023-07-13T00:00:36;6.97;;;2.88;;
70078;SDS011;57451;52.496;13.456;2023-07-13T00:03:04;6.97;;;3.10;;
70078;SDS011;57451;52.496;13.456;2023-07-13T00:05:32;6.95;;;3.22;;
70078;SDS011;57451;52.496;13.456;2023-07-13T00:07:59;5.97;;;2.97;;
70078;SDS011;57451;52.496;13.456;2023-07-13T00:10:26;6.80;;;2.77;;
70078;SDS011;57451;52.496;13.456;2023-07-13T00:12:54;6.03;;;2.90;;
70078;SDS011;57451;52.496;13.456;2023-07-13T00:15:24;5.57;;;2.90;;
70078;SDS011;57451;52.496;13.456;2023-07-13T00:17:53;7.43;;;2.90;;
70078;SDS011;57451;52.496;13.456;2023-07-13T00:20:23;8.25;;;2.95;;
70078;SDS011;57451;52.496;13.456;2023-07-13T00:22:52;8.90;;;3.20;;
70078;SDS011;57451;52.496;13.456;2023-07-13T00:25:20;5.75;;;3.08;;
70078;SDS011;57451;52.496;13.456;2023-07-13T00:27:48;7.30;;;3.25;;
70078;SDS011;57451;52.496;13.456;2023-07-13T00:30:15;6.82;;;3.47;;
70078;SDS011;57451;52.496;13.456;2023-07-13T00:32:43;6.25;;;3.10;;
70078;SDS011;57451;52.496;13.456;2023-07-13T00:35:13;6.20;;;3.00;;
70078;SDS011;57451;52.496;13.456;2023-07-13T00:37:42;6.38;;;3.50;;
70078;SDS011;57451;52.496;13.456;2023-07-13T00:40:10;5.47;;;2.90;;
70078;SDS011;57451;52.496;13.456;2023-07-13T00:42:38;4.57;;;2.55;;
70078;SDS011;57451;52.496;13.456;2023-07-13T00:45:07;6.00;;;2.67;;
70078;SDS011;57451;52.496;13.456;2023-07-13T00:47:50;6.87;;;3.17;;
70078;SDS011;57451;52.496;13.456;2023-07-13T00:50:17;7.05;;;2.55;;
70078;SDS011;57451;52.496;13.456;2023-07-13T00:52:49;5.43;;;2.72;;
70078;SDS011;57451;52.496;13.456;2023-07-13T00:55:20;5.25;;;2.95;;
70078;SDS011;57451;52.496;13.456;2023-07-13T00:57:48;7.55;;;2.90;;
70078;SDS011;57451;52.496;13.456;2023-07-13T01:00:16;5.70;;;2.70;;
70078;SDS011;57451;52.496;13.456;2023-07-13T01:02:45;5.50;;;2.58;;
70078;SDS011;57451;52.496;13.456;2023-07-13T01:05:14;5.15;;;2.80;;
70078;SDS011;57451;52.496;13.456;2023-07-13T01:07:43;8.02;;;2.63;;
70078;SDS011;57451;52.496;13.456;2023-07-13T01:10:13;5.97;;;2.67;;
70078;SDS011;57451;52.496;13.456;2023-07-13T01:12:40;5.70;;;2.73;;
70078;SDS011;57451;52.496;13.456;2023-07-13T01:18:04;5.65;;;3.00;;
70078;SDS011;57451;52.496;13.456;2023-07-13T01:20:32;4.82;;;2.60;;
70078;SDS011;57451;52.496;13.456;2023-07-13T01:23:06;7.95;;;2.47;;
70078;SDS011;57451;52.496;13.456;2023-07-13T01:25:36;5.07;;;2.60;;
70078;SDS011;57451;52.496;13.456;2023-07-13T01:28:05;4.97;;;2.35;;
70078;SDS011;57451;52.496;13.456;2023-07-13T01:30:37;5.55;;;2.58;;
70078;SDS011;57451;52.496;13.456;2023-07-13T01:33:06;4.95;;;2.58;;
70078;SDS011;57451;52.496;13.456;2023-07-13T01:35:34;5.22;;;2.45;;
70078;SDS011;57451;52.496;13.456;2023-07-13T01:38:04;6.40;;;2.50;;
70078;SDS011;57451;52.496;13.456;2023-07-13T01:40:35;4.80;;;2.53;;
70078;SDS011;57451;52.496;13.456;2023-07-13T01:43:03;6.18;;;2.63;;
70078;SDS011;57451;52.496;13.456;2023-07-13T01:45:31;6.82;;;2.50;;
70078;SDS011;57451;52.496;13.456;2023-07-13T01:47:59;6.28;;;2.63;;
70078;SDS011;57451;52.496;13.456;2023-07-13T01:50:26;5.50;;;2.70;;
70078;SDS011;57451;52.496;13.456;2023-07-13T01:52:54;4.93;;;2.47;;
70078;SDS011;57451;52.496;13.456;2023-07-13T01:55:22;6.40;;;2.67;;
70078;SDS011;57451;52.496;13.456;2023-07-13T01:57:50;5.75;;;2.90;;
70078;SDS011;57451;52.496;13.456;2023-07-13T02:00:17;5.80;;;3.10;;
70078;SDS011;57451;52.496;13.456;2023-07-13T02:02:47;6.23;;;2.90;;
70078;SDS011;57451;52.496;13.456;2023-07-13T02:05:15;8.02;;;2.60;;
70078;SDS011;57451;52.496;13.456;2023-07-13T02:07:43;6.50;;;2.95;;
70078;SDS011;57451;52.496;13.456;2023-07-13T02:10:10;6.07;;;3.17;;
70078;SDS011;57451;52.496;13.456;2023-07-13T02:12:40;6.53;;;3.03;;
70078;SDS011;57451;52.496;13.456;2023-07-13T02:15:08;5.50;;;3.03;;
70078;SDS011;57451;52.496;13.456;2023-07-13T02:17:36;4.80;;;2.92;;
70078;SDS011;57451;52.496;13.456;2023-07-13T02:20:04;6.75;;;3.00;;
70078;SDS011;57451;52.496;13.456;2023-07-13T02:22:32;6.82;;;2.83;;
70078;SDS011;57451;52.496;13.456;2023-07-13T02:25:00;4.93;;;2.90;;
70078;SDS011;57451;52.496;13.456;2023-07-13T02:27:27;6.37;;;2.70;;
70078;SDS011;57451;52.496;13.456;2023-07-13T02:29:56;7.85;;;3.50;;
70078;SDS011;57451;52.496;13.456;2023-07-13T02:32:23;7.53;;;3.00;;
70078;SDS011;57451;52.496;13.456;2023-07-13T02:34:52;6.35;;;3.28;;
70078;SDS011;57451;52.496;13.456;2023-07-13T02:37:19;4.80;;;2.97;;
70078;SDS011;57451;52.496;13.456;2023-07-13T02:39:48;6.53;;;3.20;;
70078;SDS011;57451;52.496;13.456;2023-07-13T02:42:15;6.03;;;3.20;;
70078;SDS011;57451;52.496;13.456;2023-07-13T02:44:44;5.90;;;3.08;;
70078;SDS011;57451;52.496;13.456;2023-07-13T02:47:12;7.03;;;2.65;;
70078;SDS011;57451;52.496;13.456;2023-07-13T02:49:40;8.40;;;3.13;;
70078;SDS011;57451;52.496;13.456;2023-07-13T02:52:07;5.63;;;2.83;;
70078;SDS011;57451;52.496;13.456;2023-07-13T02:54:34;9.65;;;2.95;;
70078;SDS011;57451;52.496;13.456;2023-07-13T02:57:02;5.82;;;3.10;;
70078;SDS011;57451;52.496;13.456;2023-07-13T02:59:29;6.28;;;3.30;;
70078;SDS011;57451;52.496;13.456;2023-07-13T03:01:58;6.80;;;3.28;;
70078;SDS011;57451;52.496;13.456;2023-07-13T03:04:26;5.90;;;3.40;;
70078;SDS011;57451;52.496;13.456;2023-07-13T03:06:54;6.35;;;3.50;;
70078;SDS011;57451;52.496;13.456;2023-07-13T03:09:29;7.28;;;3.35;;
70078;SDS011;57451;52.496;13.456;2023-07-13T03:11:59;7.53;;;3.08;;
70078;SDS011;57451;52.496;13.456;2023-07-13T03:14:30;5.78;;;3.35;;
70078;SDS011;57451;52.496;13.456;2023-07-13T03:16:59;5.57;;;3.30;;
70078;SDS011;57451;52.496;13.456;2023-07-13T03:19:31;4.90;;;3.15;;
70078;SDS011;57451;52.496;13.456;2023-07-13T03:22:00;5.95;;;3.40;;
70078;SDS011;57451;52.496;13.456;2023-07-13T03:24:28;5.90;;;3.50;;
70078;SDS011;57451;52.496;13.456;2023-07-13T03:26:57;5.63;;;3.47;;
70078;SDS011;57451;52.496;13.456;2023-07-13T03:29:25;7.20;;;3.27;;
70078;SDS011;57451;52.496;13.456;2023-07-13T03:31:52;6.22;;;3.08;;
70078;SDS011;57451;52.496;13.456;2023-07-13T03:34:21;6.10;;;3.08;;
70078;SDS011;57451;52.496;13.456;2023-07-13T03:36:53;5.88;;;3.28;;
70078;SDS011;57451;52.496;13.456;2023-07-13T03:39:21;6.53;;;3.40;;
70078;SDS011;57451;52.496;13.456;2023-07-13T03:41:53;8.33;;;3.13;;
70078;SDS011;57451;52.496;13.456;2023-07-13T03:44:21;5.65;;;3.50;;
70078;SDS011;57451;52.496;13.456;2023-07-13T03:46:53;6.63;;;3.33;;
70078;SDS011;57451;52.496;13.456;2023-07-13T03:49:20;9.70;;;3.60;;
70078;SDS011;57451;52.496;13.456;2023-07-13T03:51:48;6.35;;;3.20;;
70078;SDS011;57451;52.496;13.456;2023-07-13T03:54:21;6.23;;;3.23;;
70078;SDS011;57451;52.496;13.456;2023-07-13T03:56:48;5.47;;;3.05;;
70078;SDS011;57451;52.496;13.456;2023-07-13T03:59:17;5.22;;;3.13;;
70078;SDS011;57451;52.496;13.456;2023-07-13T04:01:45;6.65;;;3.33;;
70078;SDS011;57451;52.496;13.456;2023-07-13T04:04:12;6.47;;;3.63;;
70078;SDS011;57451;52.496;13.456;2023-07-13T04:06:40;6.43;;;3.30;;
70078;SDS011;57451;52.496;13.456;2023-07-13T04:09:09;5.93;;;3.33;;
70078;SDS011;57451;52.496;13.456;2023-07-13T04:11:38;6.97;;;3.20;;
70078;SDS011;57451;52.496;13.456;2023-07-13T04:14:05;7.70;;;3.30;;
70078;SDS011;57451;52.496;13.456;2023-07-13T04:16:33;6.25;;;2.95;;
70078;SDS011;57451;52.496;13.456;2023-07-13T04:19:01;6.23;;;3.10;;
70078;SDS011;57451;52.496;13.456;2023-07-13T04:21:29;5.50;;;2.90;;
70078;SDS011;57451;52.496;13.456;2023-07-13T04:23:58;7.03;;;2.70;;
70078;SDS011;57451;52.496;13.456;2023-07-13T04:26:25;4.68;;;2.70;;
70078;SDS011;57451;52.496;13.456;2023-07-13T04:28:54;6.85;;;2.70;;
70078;SDS011;57451;52.496;13.456;2023-07-13T04:31:22;5.07;;;2.80;;
70078;SDS011;57451;52.496;13.456;2023-07-13T04:33:49;6.38;;;3.15;;
70078;SDS011;57451;52.496;13.456;2023-07-13T04:36:17;5.43;;;2.97;;
70078;SDS011;57451;52.496;13.456;2023-07-13T04:38:44;4.90;;;3.10;;
70078;SDS011;57451;52.496;13.456;2023-07-13T04:41:12;7.00;;;2.95;;
70078;SDS011;57451;52.496;13.456;2023-07-13T04:43:41;7.63;;;3.10;;
70078;SDS011;57451;52.496;13.456;2023-07-13T04:46:12;7.80;;;3.20;;
70078;SDS011;57451;52.496;13.456;2023-07-13T04:48:41;6.13;;;2.95;;
70078;SDS011;57451;52.496;13.456;2023-07-13T04:51:08;5.97;;;2.80;;
70078;SDS011;57451;52.496;13.456;2023-07-13T04:53:36;6.47;;;3.17;;
70078;SDS011;57451;52.496;13.456;2023-07-13T04:56:03;5.40;;;2.73;;
70078;SDS011;57451;52.496;13.456;2023-07-13T04:58:31;7.28;;;2.83;;
70078;SDS011;57451;52.496;13.456;2023-07-13T05:01:00;7.22;;;3.20;;
70078;SDS011;57451;52.496;13.456;2023-07-13T05:03:30;5.13;;;2.70;;
70078;SDS011;57451;52.496;13.456;2023-07-13T05:05:58;5.60;;;2.85;;
70078;SDS011;57451;52.496;13.456;2023-07-13T05:08:27;6.17;;;2.77;;
70078;SDS011;57451;52.496;13.456;2023-07-13T05:10:54;7.35;;;2.90;;
70078;SDS011;57451;52.496;13.456;2023-07-13T05:13:22;5.47;;;2.78;;
70078;SDS011;57451;52.496;13.456;2023-07-13T05:15:55;5.32;;;2.67;;
70078;SDS011;57451;52.496;13.456;2023-07-13T05:18:24;6.78;;;2.72;;
70078;SDS011;57451;52.496;13.456;2023-07-13T05:20:57;5.40;;;2.67;;
70078;SDS011;57451;52.496;13.456;2023-07-13T05:23:25;6.82;;;2.70;;
70078;SDS011;57451;52.496;13.456;2023-07-13T05:25:52;5.90;;;2.70;;
70078;SDS011;57451;52.496;13.456;2023-07-13T05:28:20;7.72;;;2.55;;
70078;SDS011;57451;52.496;13.456;2023-07-13T05:30:48;6.38;;;2.60;;
70078;SDS011;57451;52.496;13.456;2023-07-13T05:33:16;6.70;;;2.37;;
70078;SDS011;57451;52.496;13.456;2023-07-13T05:35:44;5.75;;;2.70;;
70078;SDS011;57451;52.496;13.456;2023-07-13T05:38:12;5.85;;;2.38;;
70078;SDS011;57451;52.496;13.456;2023-07-13T05:40:42;5.25;;;2.30;;
70078;SDS011;57451;52.496;13.456;2023-07-13T05:43:09;6.05;;;2.60;;
70078;SDS011;57451;52.496;13.456;2023-07-13T05:45:37;4.47;;;2.10;;
70078;SDS011;57451;52.496;13.456;2023-07-13T05:48:04;5.75;;;2.30;;
70078;SDS011;57451;52.496;13.456;2023-07-13T05:50:32;4.80;;;2.55;;
70078;SDS011;57451;52.496;13.456;2023-07-13T05:52:59;6.80;;;2.40;;
70078;SDS011;57451;52.496;13.456;2023-07-13T05:55:28;6.80;;;2.70;;
70078;SDS011;57451;52.496;13.456;2023-07-13T05:57:55;5.33;;;2.53;;
70078;SDS011;57451;52.496;13.456;2023-07-13T06:00:24;5.15;;;2.38;;
70078;SDS011;57451;52.496;13.456;2023-07-13T06:02:52;7.90;;;2.75;;
70078;SDS011;57451;52.496;13.456;2023-07-13T06:05:19;6.88;;;2.53;;
70078;SDS011;57451;52.496;13.456;2023-07-13T06:07:47;6.38;;;2.80;;
70078;SDS011;57451;52.496;13.456;2023-07-13T06:10:14;5.70;;;2.67;;
70078;SDS011;57451;52.496;13.456;2023-07-13T06:12:43;5.57;;;2.60;;
70078;SDS011;57451;52.496;13.456;2023-07-13T06:15:10;5.32;;;2.45;;
70078;SDS011;57451;52.496;13.456;2023-07-13T06:17:38;7.82;;;2.92;;
70078;SDS011;57451;52.496;13.456;2023-07-13T06:20:05;4.55;;;2.42;;
70078;SDS011;57451;52.496;13.456;2023-07-13T06:22:34;7.50;;;2.80;;
70078;SDS011;57451;52.496;13.456;2023-07-13T06:25:01;6.68;;;2.58;;
70078;SDS011;57451;52.496;13.456;2023-07-13T06:27:29;5.78;;;2.70;;
70078;SDS011;57451;52.496;13.456;2023-07-13T06:29:58;8.02;;;2.90;;
70078;SDS011;57451;52.496;13.456;2023-07-13T06:32:25;5.95;;;2.70;;
70078;SDS011;57451;52.496;13.456;2023-07-13T06:34:53;5.70;;;2.90;;
70078;SDS011;57451;52.496;13.456;2023-07-13T06:37:20;7.25;;;2.70;;
70078;SDS011;57451;52.496;13.456;2023-07-13T06:39:47;5.28;;;2.88;;
70078;SDS011;57451;52.496;13.456;2023-07-13T06:42:15;5.15;;;2.50;;
70078;SDS011;57451;52.496;13.456;2023-07-13T06:44:43;5.93;;;2.80;;
70078;SDS011;57451;52.496;13.456;2023-07-13T06:47:12;5.67;;;2.63;;
70078;SDS011;57451;52.496;13.456;2023-07-13T06:49:39;5.50;;;2.78;;
70078;SDS011;57451;52.496;13.456;2023-07-13T06:52:07;5.60;;;2.50;;
70078;SDS011;57451;52.496;13.456;2023-07-13T06:54:34;6.65;;;2.42;;
70078;SDS011;57451;52.496;13.456;2023-07-13T06:57:02;4.75;;;2.70;;
70078;SDS011;57451;52.496;13.456;2023-07-13T06:59:29;5.40;;;2.30;;
70078;SDS011;57451;52.496;13.456;2023-07-13T07:01:56;7.75;;;2.50;;
70078;SDS011;57451;52.496;13.456;2023-07-13T07:04:25;5.50;;;2.40;;
70078;SDS011;57451;52.496;13.456;2023-07-13T07:06:52;6.05;;;2.17;;
70078;SDS011;57451;52.496;13.456;2023-07-13T07:09:22;4.90;;;2.50;;
70078;SDS011;57451;52.496;13.456;2023-07-13T07:11:49;7.93;;;2.40;;
70078;SDS011;57451;52.496;13.456;2023-07-13T07:14:30;4.32;;;2.20;;
70078;SDS011;57451;52.496;13.456;2023-07-13T07:16:57;7.95;;;2.40;;
70078;SDS011;57451;52.496;13.456;2023-07-13T07:19:27;5.35;;;2.20;;
70078;SDS011;57451;52.496;13.456;2023-07-13T07:21:56;4.35;;;2.00;;
70078;SDS011;57451;52.496;13.456;2023-07-13T07:24:23;4.77;;;2.00;;
70078;SDS011;57451;52.496;13.456;2023-07-13T07:26:51;4.80;;;1.90;;
70078;SDS011;57451;52.496;13.456;2023-07-13T07:29:21;6.15;;;1.83;;
70078;SDS011;57451;52.496;13.456;2023-07-13T07:31:52;4.43;;;1.92;;
70078;SDS011;57451;52.496;13.456;2023-07-13T07:34:22;4.80;;;1.95;;
70078;SDS011;57451;52.496;13.456;2023-07-13T07:36:53;4.73;;;1.80;;
70078;SDS011;57451;52.496;13.456;2023-07-13T07:39:23;5.10;;;2.00;;
70078;SDS011;57451;52.496;13.456;2023-07-13T07:41:50;4.22;;;1.90;;
70078;SDS011;57451;52.496;13.456;2023-07-13T07:44:22;5.47;;;2.00;;
70078;SDS011;57451;52.496;13.456;2023-07-13T07:46:49;5.68;;;1.98;;
70078;SDS011;57451;52.496;13.456;2023-07-13T07:49:16;5.90;;;2.03;;
70078;SDS011;57451;52.496;13.456;2023-07-13T07:51:44;4.70;;;1.80;;
70078;SDS011;57451;52.496;13.456;2023-07-13T07:54:13;6.50;;;1.83;;
70078;SDS011;57451;52.496;13.456;2023-07-13T07:56:53;4.90;;;1.80;;
70078;SDS011;57451;52.496;13.456;2023-07-13T07:59:23;6.50;;;1.80;;
70078;SDS011;57451;52.496;13.456;2023-07-13T08:01:54;4.67;;;1.83;;
70078;SDS011;57451;52.496;13.456;2023-07-13T08:04:24;4.00;;;1.80;;
70078;SDS011;57451;52.496;13.456;2023-07-13T08:06:55;4.82;;;1.90;;
70078;SDS011;57451;52.496;13.456;2023-07-13T08:09:26;5.35;;;1.67;;
70078;SDS011;57451;52.496;13.456;2023-07-13T08:11:54;6.18;;;1.70;;
70078;SDS011;57451;52.496;13.456;2023-07-13T08:14:24;4.80;;;1.80;;
70078;SDS011;57451;52.496;13.456;2023-07-13T08:17:04;5.20;;;1.98;;
70078;SDS011;57451;52.496;13.456;2023-07-13T08:19:32;4.53;;;1.88;;
70078;SDS011;57451;52.496;13.456;2023-07-13T08:21:59;5.35;;;2.30;;
70078;SDS011;57451;52.496;13.456;2023-07-13T08:24:28;6.35;;;2.15;;
70078;SDS011;57451;52.496;13.456;2023-07-13T08:26:56;4.67;;;2.03;;
70078;SDS011;57451;52.496;13.456;2023-07-13T08:29:23;7.30;;;1.98;;
70078;SDS011;57451;52.496;13.456;2023-07-13T08:31:51;5.10;;;2.00;;
70078;SDS011;57451;52.496;13.456;2023-07-13T08:34:18;5.20;;;1.73;;
70078;SDS011;57451;52.496;13.456;2023-07-13T08:36:46;6.47;;;2.00;;
70078;SDS011;57451;52.496;13.456;2023-07-13T08:39:13;4.30;;;1.73;;
70078;SDS011;57451;52.496;13.456;2023-07-13T08:41:42;7.32;;;2.10;;
70078;SDS011;57451;52.496;13.456;2023-07-13T08:44:16;4.88;;;1.88;;
70078;SDS011;57451;52.496;13.456;2023-07-13T08:46:52;6.28;;;2.00;;
70078;SDS011;57451;52.496;13.456;2023-07-13T08:49:22;3.92;;;2.05;;
70078;SDS011;57451;52.496;13.456;2023-07-13T08:51:51;4.50;;;1.90;;
70078;SDS011;57451;52.496;13.456;2023-07-13T08:54:26;3.70;;;2.20;;
70078;SDS011;57451;52.496;13.456;2023-07-13T08:56:59;4.35;;;2.00;;
70078;SDS011;57451;52.496;13.456;2023-07-13T08:59:30;4.00;;;1.98;;
70078;SDS011;57451;52.496;13.456;2023-07-13T09:02:05;6.35;;;2.03;;
70078;SDS011;57451;52.496;13.456;2023-07-13T09:04:45;4.37;;;1.90;;
70078;SDS011;57451;52.496;13.456;2023-07-13T09:07:18;3.72;;;2.03;;
70078;SDS011;57451;52.496;13.456;2023-07-13T09:09:59;4.47;;;1.90;;
70078;SDS011;57451;52.496;13.456;2023-07-13T09:12:41;4.40;;;1.98;;
70078;SDS011;57451;52.496;13.456;2023-07-13T09:15:22;6.47;;;1.88;;
70078;SDS011;57451;52.496;13.456;2023-07-13T09:17:53;4.40;;;1.90;;
70078;SDS011;57451;52.496;13.456;2023-07-13T09:20:25;4.00;;;1.90;;
70078;SDS011;57451;52.496;13.456;2023-07-13T09:22:58;4.45;;;1.77;;
70078;SDS011;57451;52.496;13.456;2023-07-13T09:25:30;3.97;;;1.88;;
70078;SDS011;57451;52.496;13.456;2023-07-13T09:28:02;3.58;;;1.52;;
70078;SDS011;57451;52.496;13.456;2023-07-13T09:30:38;5.23;;;1.67;;
70078;SDS011;57451;52.496;13.456;2023-07-13T09:33:12;6.60;;;1.80;;
70078;SDS011;57451;52.496;13.456;2023-07-13T09:35:41;4.85;;;1.77;;
70078;SDS011;57451;52.496;13.456;2023-07-13T09:38:11;4.38;;;1.95;;
70078;SDS011;57451;52.496;13.456;2023-07-13T09:40:43;4.82;;;2.13;;
70078;SDS011;57451;52.496;13.456;2023-07-13T09:43:18;5.40;;;1.93;;
70078;SDS011;57451;52.496;13.456;2023-07-13T09:45:47;4.22;;;1.60;;
70078;SDS011;57451;52.496;13.456;2023-07-13T09:48:15;5.07;;;1.85;;
70078;SDS011;57451;52.496;13.456;2023-07-13T09:50:45;4.75;;;2.20;;
70078;SDS011;57451;52.496;13.456;2023-07-13T09:53:14;6.80;;;1.80;;
70078;SDS011;57451;52.496;13.456;2023-07-13T09:55:46;5.60;;;2.10;;
70078;SDS011;57451;52.496;13.456;2023-07-13T09:58:21;6.50;;;2.80;;
70078;SDS011;57451;52.496;13.456;2023-07-13T10:00:55;5.32;;;2.70;;
70078;SDS011;57451;52.496;13.456;2023-07-13T10:03:25;6.47;;;2.97;;
70078;SDS011;57451;52.496;13.456;2023-07-13T10:05:53;7.38;;;3.30;;
70078;SDS011;57451;52.496;13.456;2023-07-13T10:08:23;5.97;;;3.43;;
70078;SDS011;57451;52.496;13.456;2023-07-13T10:10:52;5.43;;;3.15;;
70078;SDS011;57451;52.496;13.456;2023-07-13T10:13:29;6.25;;;2.90;;
70078;SDS011;57451;52.496;13.456;2023-07-13T10:15:59;7.45;;;3.15;;
70078;SDS011;57451;52.496;13.456;2023-07-13T10:18:27;5.25;;;3.25;;
70078;SDS011;57451;52.496;13.456;2023-07-13T10:20:58;5.23;;;2.90;;
70078;SDS011;57451;52.496;13.456;2023-07-13T10:23:59;5.55;;;2.97;;
70078;SDS011;57451;52.496;13.456;2023-07-13T10:26:33;6.38;;;3.20;;
70078;SDS011;57451;52.496;13.456;2023-07-13T10:29:05;5.00;;;2.90;;
70078;SDS011;57451;52.496;13.456;2023-07-13T10:31:39;6.32;;;3.10;;
70078;SDS011;57451;52.496;13.456;2023-07-13T10:34:09;5.23;;;3.00;;
70078;SDS011;57451;52.496;13.456;2023-07-13T10:36:39;5.30;;;3.03;;
70078;SDS011;57451;52.496;13.456;2023-07-13T10:39:09;6.75;;;3.42;;
70078;SDS011;57451;52.496;13.456;2023-07-13T10:41:42;6.00;;;3.33;;
70078;SDS011;57451;52.496;13.456;2023-07-13T10:44:17;7.68;;;3.35;;
70078;SDS011;57451;52.496;13.456;2023-07-13T10:46:48;4.03;;;2.60;;
70078;SDS011;57451;52.496;13.456;2023-07-13T10:49:16;7.70;;;2.80;;
70078;SDS011;57451;52.496;13.456;2023-07-13T10:51:45;4.90;;;2.67;;
70078;SDS011;57451;52.496;13.456;2023-07-13T10:54:15;5.60;;;2.60;;
70078;SDS011;57451;52.496;13.456;2023-07-13T10:56:48;5.97;;;2.83;;
70078;SDS011;57451;52.496;13.456;2023-07-13T10:59:23;6.53;;;2.90;;
70078;SDS011;57451;52.496;13.456;2023-07-13T11:01:57;6.93;;;2.80;;
70078;SDS011;57451;52.496;13.456;2023-07-13T11:04:39;4.88;;;2.80;;
70078;SDS011;57451;52.496;13.456;2023-07-13T11:07:19;5.80;;;2.90;;
70078;SDS011;57451;52.496;13.456;2023-07-13T11:09:51;5.05;;;2.72;;
70078;SDS011;57451;52.496;13.456;2023-07-13T11:15:28;4.80;;;2.90;;
70078;SDS011;57451;52.496;13.456;2023-07-13T11:18:02;6.88;;;3.20;;
70078;SDS011;57451;52.496;13.456;2023-07-13T11:20:36;7.03;;;3.13;;
70078;SDS011;57451;52.496;13.456;2023-07-13T11:23:07;5.38;;;2.90;;
70078;SDS011;57451;52.496;13.456;2023-07-13T11:25:44;8.50;;;3.07;;
70078;SDS011;57451;52.496;13.456;2023-07-13T11:28:16;6.53;;;2.97;;
70078;SDS011;57451;52.496;13.456;2023-07-13T11:30:49;5.70;;;2.70;;
70078;SDS011;57451;52.496;13.456;2023-07-13T11:33:27;6.35;;;2.72;;
70078;SDS011;57451;52.496;13.456;2023-07-13T11:36:12;6.30;;;2.70;;
70078;SDS011;57451;52.496;13.456;2023-07-13T11:38:41;4.87;;;2.80;;
70078;SDS011;57451;52.496;13.456;2023-07-13T11:41:14;4.47;;;2.55;;
70078;SDS011;57451;52.496;13.456;2023-07-13T11:43:43;4.88;;;2.50;;
70078;SDS011;57451;52.496;13.456;2023-07-13T11:46:13;6.53;;;2.85;;
70078;SDS011;57451;52.496;13.456;2023-07-13T11:48:42;6.78;;;2.88;;
70078;SDS011;57451;52.496;13.456;2023-07-13T11:51:15;5.57;;;2.90;;
70078;SDS011;57451;52.496;13.456;2023-07-13T11:53:48;5.25;;;3.15;;
70078;SDS011;57451;52.496;13.456;2023-07-13T11:56:16;6.75;;;2.58;;
70078;SDS011;57451;52.496;13.456;2023-07-13T11:58:47;6.25;;;3.38;;
70078;SDS011;57451;52.496;13.456;2023-07-13T12:01:18;6.50;;;3.25;;
70078;SDS011;57451;52.496;13.456;2023-07-13T12:03:48;5.77;;;3.10;;
70078;SDS011;57451;52.496;13.456;2023-07-13T12:06:22;5.60;;;2.70;;
70078;SDS011;57451;52.496;13.456;2023-07-13T12:08:57;5.15;;;3.25;;
70078;SDS011;57451;52.496;13.456;2023-07-13T12:11:26;5.40;;;2.70;;
70078;SDS011;57451;52.496;13.456;2023-07-13T12:13:54;5.38;;;2.75;;
70078;SDS011;57451;52.496;13.456;2023-07-13T12:16:25;5.53;;;2.63;;
70078;SDS011;57451;52.496;13.456;2023-07-13T12:18:55;5.97;;;2.65;;
70078;SDS011;57451;52.496;13.456;2023-07-13T12:21:26;4.75;;;2.40;;
70078;SDS011;57451;52.496;13.456;2023-07-13T12:23:57;6.35;;;2.60;;
70078;SDS011;57451;52.496;13.456;2023-07-13T12:26:26;5.18;;;2.60;;
70078;SDS011;57451;52.496;13.456;2023-07-13T12:28:54;6.33;;;2.60;;
70078;SDS011;57451;52.496;13.456;2023-07-13T12:31:26;5.55;;;3.05;;
70078;SDS011;57451;52.496;13.456;2023-07-13T12:34:01;5.40;;;2.70;;
70078;SDS011;57451;52.496;13.456;2023-07-13T12:36:33;5.18;;;2.83;;
70078;SDS011;57451;52.496;13.456;2023-07-13T12:39:04;5.53;;;2.55;;
70078;SDS011;57451;52.496;13.456;2023-07-13T12:41:44;4.30;;;2.57;;
70078;SDS011;57451;52.496;13.456;2023-07-13T12:44:16;5.10;;;2.50;;
70078;SDS011;57451;52.496;13.456;2023-07-13T12:47:04;5.13;;;2.42;;
70078;SDS011;57451;52.496;13.456;2023-07-13T12:49:40;4.28;;;2.38;;
70078;SDS011;57451;52.496;13.456;2023-07-13T12:52:17;5.60;;;2.70;;
70078;SDS011;57451;52.496;13.456;2023-07-13T12:54:54;6.13;;;2.47;;
70078;SDS011;57451;52.496;13.456;2023-07-13T12:57:37;7.13;;;2.60;;
70078;SDS011;57451;52.496;13.456;2023-07-13T13:00:09;4.95;;;2.15;;
70078;SDS011;57451;52.496;13.456;2023-07-13T13:02:53;5.28;;;2.75;;
70078;SDS011;57451;52.496;13.456;2023-07-13T13:05:42;5.90;;;2.50;;
70078;SDS011;57451;52.496;13.456;2023-07-13T13:08:12;4.45;;;2.35;;
70078;SDS011;57451;52.496;13.456;2023-07-13T13:10:39;6.45;;;2.63;;
70078;SDS011;57451;52.496;13.456;2023-07-13T13:13:07;5.75;;;2.30;;
70078;SDS011;57451;52.496;13.456;2023-07-13T13:15:35;5.60;;;2.30;;
70078;SDS011;57451;52.496;13.456;2023-07-13T13:18:08;5.57;;;2.20;;
70078;SDS011;57451;52.496;13.456;2023-07-13T13:20:42;5.78;;;2.00;;
70078;SDS011;57451;52.496;13.456;2023-07-13T13:23:10;6.20;;;2.20;;
70078;SDS011;57451;52.496;13.456;2023-07-13T13:25:41;5.50;;;2.25;;
70078;SDS011;57451;52.496;13.456;2023-07-13T13:28:12;6.38;;;2.33;;
70078;SDS011;57451;52.496;13.456;2023-07-13T13:30:42;5.63;;;2.05;;
70078;SDS011;57451;52.496;13.456;2023-07-13T13:33:11;4.07;;;2.30;;
70078;SDS011;57451;52.496;13.456;2023-07-13T13:35:40;4.90;;;2.20;;
70078;SDS011;57451;52.496;13.456;2023-07-13T13:38:09;6.32;;;2.33;;
70078;SDS011;57451;52.496;13.456;2023-07-13T13:40:41;5.30;;;2.60;;
70078;SDS011;57451;52.496;13.456;2023-07-13T13:43:15;5.07;;;2.08;;
70078;SDS011;57451;52.496;13.456;2023-07-13T13:45:44;5.37;;;2.20;;
70078;SDS011;57451;52.496;13.456;2023-07-13T13:48:15;5.22;;;2.05;;
70078;SDS011;57451;52.496;13.456;2023-07-13T13:50:45;5.05;;;2.10;;
70078;SDS011;57451;52.496;13.456;2023-07-13T13:53:13;6.32;;;1.85;;
70078;SDS011;57451;52.496;13.456;2023-07-13T13:55:41;5.70;;;2.03;;
70078;SDS011;57451;52.496;13.456;2023-07-13T14:01:08;7.15;;;2.00;;
70078;SDS011;57451;52.496;13.456;2023-07-13T14:03:41;4.25;;;2.10;;
70078;SDS011;57451;52.496;13.456;2023-07-13T14:06:09;5.93;;;2.50;;
70078;SDS011;57451;52.496;13.456;2023-07-13T14:08:39;4.32;;;2.00;;
70078;SDS011;57451;52.496;13.456;2023-07-13T14:11:07;5.68;;;2.08;;
70078;SDS011;57451;52.496;13.456;2023-07-13T14:13:40;5.82;;;2.47;;
70078;SDS011;57451;52.496;13.456;2023-07-13T14:16:11;5.57;;;2.05;;
70078;SDS011;57451;52.496;13.456;2023-07-13T14:18:41;5.88;;;2.22;;
70078;SDS011;57451;52.496;13.456;2023-07-13T14:21:11;5.78;;;2.20;;
70078;SDS011;57451;52.496;13.456;2023-07-13T14:23:39;4.47;;;1.90;;
70078;SDS011;57451;52.496;13.456;2023-07-13T14:26:09;5.45;;;2.00;;
70078;SDS011;57451;52.496;13.456;2023-07-13T14:28:41;5.53;;;1.95;;
70078;SDS011;57451;52.496;13.456;2023-07-13T14:31:10;5.43;;;2.20;;
70078;SDS011;57451;52.496;13.456;2023-07-13T14:33:42;5.43;;;2.13;;
70078;SDS011;57451;52.496;13.456;2023-07-13T14:36:19;6.17;;;2.00;;
70078;SDS011;57451;52.496;13.456;2023-07-13T14:38:58;4.15;;;2.20;;
70078;SDS011;57451;52.496;13.456;2023-07-13T14:41:27;4.95;;;2.10;;
70078;SDS011;57451;52.496;13.456;2023-07-13T14:43:55;4.72;;;1.90;;
70078;SDS011;57451;52.496;13.456;2023-07-13T14:46:26;5.45;;;1.98;;
70078;SDS011;57451;52.496;13.456;2023-07-13T14:49:00;6.10;;;2.08;;
70078;SDS011;57451;52.496;13.456;2023-07-13T14:51:36;4.13;;;2.08;;
70078;SDS011;57451;52.496;13.456;2023-07-13T14:54:04;4.18;;;2.00;;
70078;SDS011;57451;52.496;13.456;2023-07-13T14:56:33;6.68;;;2.28;;
70078;SDS011;57451;52.496;13.456;2023-07-13T14:59:00;5.95;;;2.20;;